Time;durP1;ratioP1;P1;durP2;ratioP2;P2;SDS_P1;SDS_P2;PMS_P1;PMS_P2;Temp;Humidity;BMP_temperature;BMP_pressure;BME280_temperature;BME280_humidity;BME280_pressure;Samples;Min_cycle;Max_cycle;Signal;HPM_P1;HPM_P2
2024/03/01 00:00:40;;;;;;;72.20;28.80;;;;;;;;;;103492;1292;548065;-71
2024/03/01 00:04:18;;;;;;;62.80;30.40;;;;;;;;;;103378;1291;545529;-71
2024/03/01 00:07:55;;;;;;;48.80;29.30;;;;;;;;;;103467;1294;548013;-71
2024/03/01 00:11:32;;;;;;;61.80;29.30;;;;;;;;;;103376;1291;545439;-71
2024/03/01 00:15:10;;;;;;;51.50;27.90;;;;;;;;;;103388;1294;550465;-71
2024/03/01 00:18:48;;;;;;;44.20;27.80;;;;;;;;;;103437;1303;545337;-71
2024/03/01 00:22:25;;;;;;;97.40;31.30;;;;;;;;;;103435;1294;548082;-71
2024/03/01 00:26:02;;;;;;;54.30;30.20;;;;;;;;;;103462;1294;545587;-71
2024/03/01 00:29:39;;;;;;;78.40;32.80;;;;;;;;;;103469;1289;545391;-71
2024/03/01 00:33:17;;;;;;;60.40;30.40;;;;;;;;;;103387;1295;545490;-71
2024/03/01 00:36:54;;;;;;;49.10;32.80;;;;;;;;;;103590;1294;548051;-71
2024/03/01 00:40:37;;;;;;;69.00;37.30;;;;;;;;;;103998;1286;545298;-71
2024/03/01 00:44:09;;;;;;;54.50;35.00;;;;;;;;;;103366;1304;548368;-71
2024/03/01 00:47:49;;;;;;;47.20;32.10;;;;;;;;;;103446;1294;547862;-69
2024/03/01 00:51:24;;;;;;;47.70;34.40;;;;;;;;;;103469;1294;547805;-71
2024/03/01 00:55:02;;;;;;;54.80;35.90;;;;;;;;;;103849;1290;545549;-71
2024/03/01 00:58:35;;;;;;;52.60;34.60;;;;;;;;;;103384;1303;549181;-70
2024/03/01 01:02:17;;;;;;;57.60;36.60;;;;;;;;;;103387;1295;545228;-71
2024/03/01 01:05:55;;;;;;;53.50;34.90;;;;;;;;;;103408;1294;545466;-70
2024/03/01 01:09:32;;;;;;;56.20;35.20;;;;;;;;;;103392;1288;548185;-70
2024/03/01 01:13:10;;;;;;;52.00;34.00;;;;;;;;;;103445;1295;545460;-71
2024/03/01 01:16:43;;;;;;;51.60;35.00;;;;;;;;;;103880;1286;546021;-68
2024/03/01 01:20:24;;;;;;;50.60;33.40;;;;;;;;;;103476;1292;545520;-71
2024/03/01 01:24:03;;;;;;;50.80;33.80;;;;;;;;;;103373;1295;548129;-71
2024/03/01 01:27:39;;;;;;;54.20;36.10;;;;;;;;;;103499;1294;545452;-71
2024/03/01 01:31:18;;;;;;;54.90;36.20;;;;;;;;;;103384;1297;545459;-71
2024/03/01 01:34:54;;;;;;;52.90;36.20;;;;;;;;;;103355;1296;545283;-71
2024/03/01 01:38:31;;;;;;;60.80;38.70;;;;;;;;;;103379;1295;546331;-71
2024/03/01 01:42:08;;;;;;;53.80;35.30;;;;;;;;;;103559;1295;548081;-71
2024/03/01 01:45:46;;;;;;;54.60;37.00;;;;;;;;;;103360;1295;546285;-71
2024/03/01 01:49:25;;;;;;;57.50;38.40;;;;;;;;;;103513;1295;545375;-71
2024/03/01 01:53:02;;;;;;;58.10;37.10;;;;;;;;;;103991;1290;545573;-70
2024/03/01 01:56:39;;;;;;;54.30;36.20;;;;;;;;;;103949;1291;548764;-71
2024/03/01 02:00:06;;;;;;;57.20;37.00;;;;;;;;;;103832;1295;545570;-71
2024/03/01 02:03:45;;;;;;;57.90;37.40;;;;;;;;;;103680;1294;545413;-71
2024/03/01 02:07:22;;;;;;;59.40;38.60;;;;;;;;;;103756;1291;545165;-71
2024/03/01 02:10:59;;;;;;;63.60;40.60;;;;;;;;;;103788;1290;544949;-71
2024/03/01 02:14:37;;;;;;;60.60;39.20;;;;;;;;;;103745;1291;545025;-71
2024/03/01 02:18:14;;;;;;;61.30;39.30;;;;;;;;;;103790;1301;545137;-71
2024/03/01 02:21:51;;;;;;;57.70;37.90;;;;;;;;;;103840;1289;545963;-71
2024/03/01 02:25:29;;;;;;;61.20;39.50;;;;;;;;;;103591;1291;544857;-70
2024/03/01 02:29:06;;;;;;;59.60;40.30;;;;;;;;;;103726;1295;545507;-71
2024/03/01 02:32:44;;;;;;;66.10;42.00;;;;;;;;;;103616;1292;546030;-71
2024/03/01 02:36:22;;;;;;;67.00;42.00;;;;;;;;;;103702;1292;544993;-71
2024/03/01 02:39:58;;;;;;;64.20;40.90;;;;;;;;;;103789;1290;544853;-71
2024/03/01 02:43:39;;;;;;;65.10;41.70;;;;;;;;;;103699;1291;544800;-71
2024/03/01 02:47:13;;;;;;;61.60;39.90;;;;;;;;;;104091;1292;544870;-71
2024/03/01 02:50:53;;;;;;;61.30;40.20;;;;;;;;;;103786;1289;546425;-71
2024/03/01 02:54:29;;;;;;;65.00;42.80;;;;;;;;;;103671;1289;544802;-71
2024/03/01 02:58:07;;;;;;;70.60;45.80;;;;;;;;;;104239;1286;544749;-71
2024/03/01 03:01:41;;;;;;;67.50;42.30;;;;;;;;;;103803;1295;544988;-69
2024/03/01 03:05:22;;;;;;;62.00;40.80;;;;;;;;;;103787;1292;544870;-71
2024/03/01 03:08:59;;;;;;;62.70;40.00;;;;;;;;;;103654;1293;545126;-71
2024/03/01 03:12:38;;;;;;;63.10;40.30;;;;;;;;;;103748;1289;545068;-71
2024/03/01 03:16:15;;;;;;;63.80;41.90;;;;;;;;;;103625;1292;544758;-71
2024/03/01 03:19:52;;;;;;;63.10;39.80;;;;;;;;;;103804;1289;545643;-71
2024/03/01 03:23:29;;;;;;;63.10;40.40;;;;;;;;;;103778;1290;545466;-71
2024/03/01 03:27:07;;;;;;;62.90;40.90;;;;;;;;;;103742;1292;544610;-72
2024/03/01 03:30:40;;;;;;;66.40;40.50;;;;;;;;;;103739;1289;545246;-71
2024/03/01 03:34:22;;;;;;;62.70;40.40;;;;;;;;;;103815;1290;545106;-71
2024/03/01 03:37:59;;;;;;;67.20;44.00;;;;;;;;;;103727;1304;544813;-71
2024/03/01 03:41:37;;;;;;;68.20;42.30;;;;;;;;;;103733;1293;545234;-71
2024/03/01 03:45:15;;;;;;;69.00;43.80;;;;;;;;;;103621;1291;544990;-71
2024/03/01 03:48:51;;;;;;;66.40;43.00;;;;;;;;;;103795;1301;545091;-71
2024/03/01 03:52:28;;;;;;;66.00;41.30;;;;;;;;;;103752;1292;545155;-71
2024/03/01 03:56:07;;;;;;;65.30;41.70;;;;;;;;;;103737;1292;545071;-71
2024/03/01 03:59:45;;;;;;;63.50;42.10;;;;;;;;;;103635;1295;545016;-71
2024/03/01 04:03:17;;;;;;;62.10;39.60;;;;;;;;;;103592;1292;545175;-69
2024/03/01 04:06:59;;;;;;;64.40;39.70;;;;;;;;;;103685;1289;545126;-71
2024/03/01 04:10:36;;;;;;;59.20;38.70;;;;;;;;;;103821;1289;545859;-71
2024/03/01 04:14:14;;;;;;;59.30;37.70;;;;;;;;;;103956;1289;544850;-71
2024/03/01 04:17:51;;;;;;;54.70;35.30;;;;;;;;;;103855;1289;544775;-71
2024/03/01 04:21:29;;;;;;;56.10;36.80;;;;;;;;;;103755;1289;544866;-71
2024/03/01 04:25:06;;;;;;;58.00;37.90;;;;;;;;;;103866;1292;544933;-71
2024/03/01 04:28:43;;;;;;;59.00;37.30;;;;;;;;;;103631;1294;545316;-71
2024/03/01 04:32:21;;;;;;;56.30;36.20;;;;;;;;;;103820;1289;545440;-71
2024/03/01 04:35:58;;;;;;;53.70;33.60;;;;;;;;;;103878;1289;544798;-71
2024/03/01 04:39:35;;;;;;;56.80;34.60;;;;;;;;;;103765;1301;544977;-71
2024/03/01 04:43:13;;;;;;;56.30;36.50;;;;;;;;;;103726;1289;545223;-71
2024/03/01 04:46:51;;;;;;;53.30;35.40;;;;;;;;;;103926;1290;544894;-71
2024/03/01 04:50:28;;;;;;;53.80;35.20;;;;;;;;;;103673;1291;544890;-71
2024/03/01 04:54:06;;;;;;;53.10;33.40;;;;;;;;;;103714;1292;545042;-71
2024/03/01 04:57:44;;;;;;;49.60;31.90;;;;;;;;;;103636;1289;545452;-71
2024/03/01 05:01:22;;;;;;;49.40;32.80;;;;;;;;;;103808;1289;545738;-71
2024/03/01 05:04:58;;;;;;;47.10;31.60;;;;;;;;;;103650;1293;544705;-71
2024/03/01 05:08:32;;;;;;;50.20;32.50;;;;;;;;;;105621;1289;544821;-69
2024/03/01 05:12:13;;;;;;;49.10;31.90;;;;;;;;;;103474;1292;546609;-69
2024/03/01 05:15:47;;;;;;;45.70;30.30;;;;;;;;;;103507;1289;545005;-69
2024/03/01 05:19:23;;;;;;;51.10;32.00;;;;;;;;;;103765;1292;544792;-69
2024/03/01 05:23:05;;;;;;;48.00;30.70;;;;;;;;;;103734;1289;545818;-71
2024/03/01 05:26:42;;;;;;;48.50;30.50;;;;;;;;;;103858;1291;544969;-71
2024/03/01 05:30:18;;;;;;;42.50;28.50;;;;;;;;;;103619;1292;545083;-69
2024/03/01 05:33:57;;;;;;;43.20;28.60;;;;;;;;;;103554;1293;544849;-71
2024/03/01 05:37:35;;;;;;;45.20;30.00;;;;;;;;;;103738;1293;545143;-72
2024/03/01 05:41:12;;;;;;;41.60;27.60;;;;;;;;;;103907;1292;545845;-71
2024/03/01 05:44:50;;;;;;;40.40;26.40;;;;;;;;;;104056;1289;545045;-71
2024/03/01 05:48:27;;;;;;;40.90;27.90;;;;;;;;;;103542;1291;545736;-71
2024/03/01 05:52:05;;;;;;;41.10;26.80;;;;;;;;;;103770;1292;545445;-71
2024/03/01 05:55:42;;;;;;;42.00;27.00;;;;;;;;;;103629;1292;544741;-71
2024/03/01 05:59:22;;;;;;;46.80;29.30;;;;;;;;;;103692;1289;544884;-71
2024/03/01 06:02:56;;;;;;;41.60;26.70;;;;;;;;;;103692;1295;545435;-71
2024/03/01 06:06:33;;;;;;;39.50;25.70;;;;;;;;;;103806;1292;544737;-71
2024/03/01 06:10:12;;;;;;;35.80;24.00;;;;;;;;;;103693;1290;545901;-71
2024/03/01 06:13:53;;;;;;;32.20;22.50;;;;;;;;;;103598;1291;547840;-71
2024/03/01 06:17:26;;;;;;;35.10;23.80;;;;;;;;;;103649;1292;544828;-71
2024/03/01 06:21:04;;;;;;;37.90;25.20;;;;;;;;;;103873;1289;544869;-70
2024/03/01 06:24:41;;;;;;;36.00;23.20;;;;;;;;;;103739;1289;544773;-71
2024/03/01 06:28:18;;;;;;;33.60;21.60;;;;;;;;;;105171;1289;544726;-72
2024/03/01 06:31:56;;;;;;;34.80;23.10;;;;;;;;;;103884;1293;544990;-71
2024/03/01 06:35:34;;;;;;;35.10;22.10;;;;;;;;;;103895;1289;544869;-71
2024/03/01 06:39:11;;;;;;;32.70;21.60;;;;;;;;;;103986;1292;545065;-71
2024/03/01 06:42:49;;;;;;;36.90;23.30;;;;;;;;;;103880;1289;544931;-70
2024/03/01 06:46:27;;;;;;;37.70;24.30;;;;;;;;;;103485;1293;545159;-71
2024/03/01 06:50:06;;;;;;;34.00;22.20;;;;;;;;;;103887;1293;544729;-71
2024/03/01 06:53:42;;;;;;;31.20;21.50;;;;;;;;;;103637;1292;545696;-71
2024/03/01 06:57:19;;;;;;;34.90;21.90;;;;;;;;;;104163;1286;545345;-71
2024/03/01 07:00:58;;;;;;;41.10;26.50;;;;;;;;;;103630;1289;545712;-71
2024/03/01 07:04:34;;;;;;;47.60;28.60;;;;;;;;;;103825;1290;545082;-71
2024/03/01 07:08:08;;;;;;;45.40;27.70;;;;;;;;;;103624;1295;545617;-71
2024/03/01 07:11:49;;;;;;;45.10;27.90;;;;;;;;;;103843;1292;544853;-71
2024/03/01 07:15:27;;;;;;;42.30;24.60;;;;;;;;;;103769;1291;545657;-71
2024/03/01 07:19:04;;;;;;;36.50;24.50;;;;;;;;;;104541;1285;544887;-72
2024/03/01 07:22:41;;;;;;;38.80;26.30;;;;;;;;;;103833;1292;545000;-72
2024/03/01 07:26:20;;;;;;;36.60;26.00;;;;;;;;;;103862;1289;546600;-71
2024/03/01 07:29:56;;;;;;;33.20;23.00;;;;;;;;;;103667;1293;545532;-71
2024/03/01 07:33:34;;;;;;;39.70;25.80;;;;;;;;;;103821;1290;545393;-72
2024/03/01 07:37:12;;;;;;;44.80;33.20;;;;;;;;;;103652;1295;545017;-71
2024/03/01 07:40:49;;;;;;;43.40;28.00;;;;;;;;;;103792;1289;545448;-71
2024/03/01 07:44:26;;;;;;;42.50;26.10;;;;;;;;;;103762;1290;544995;-71
2024/03/01 07:48:04;;;;;;;44.20;25.40;;;;;;;;;;103981;1288;545572;-71
2024/03/01 07:51:40;;;;;;;41.10;24.00;;;;;;;;;;103654;1292;544767;-71
2024/03/01 07:55:18;;;;;;;34.70;21.40;;;;;;;;;;103868;1290;545927;-72
2024/03/01 07:59:02;;;;;;;43.90;29.30;;;;;;;;;;103708;1302;545004;-72
2024/03/01 08:02:34;;;;;;;37.00;25.30;;;;;;;;;;103820;1292;545977;-71
2024/03/01 08:06:11;;;;;;;32.20;21.40;;;;;;;;;;103652;1291;545521;-71
2024/03/01 08:09:48;;;;;;;36.20;20.30;;;;;;;;;;103739;1293;546020;-72
2024/03/01 08:13:26;;;;;;;30.40;21.20;;;;;;;;;;103858;1292;544963;-71
2024/03/01 08:17:04;;;;;;;35.70;21.50;;;;;;;;;;103822;1289;544754;-72
2024/03/01 08:21:03;;;;;;;36.40;20.60;;;;;;;;;;103733;1294;544774;-71
2024/03/01 08:24:21;;;;;;;35.30;20.10;;;;;;;;;;103804;1289;544975;-72
2024/03/01 08:27:56;;;;;;;34.70;21.40;;;;;;;;;;103723;1289;545067;-72
2024/03/01 08:31:34;;;;;;;38.50;24.50;;;;;;;;;;103804;1290;545677;-71
2024/03/01 08:35:14;;;;;;;33.40;23.50;;;;;;;;;;103768;1288;545545;-71
2024/03/01 08:38:57;;;;;;;35.70;20.80;;;;;;;;;;103968;1295;545274;-72
2024/03/01 08:42:27;;;;;;;36.10;22.30;;;;;;;;;;103709;1295;544916;-71
2024/03/01 08:46:03;;;;;;;31.30;21.10;;;;;;;;;;103753;1290;545804;-72
2024/03/01 08:49:51;;;;;;;38.00;25.20;;;;;;;;;;103658;1290;545245;-71
2024/03/01 08:53:36;;;;;;;34.40;22.00;;;;;;;;;;103931;1289;544976;-72
2024/03/01 08:57:04;;;;;;;31.20;19.50;;;;;;;;;;103709;1291;544939;-72
2024/03/01 09:00:37;;;;;;;34.80;25.40;;;;;;;;;;103876;1292;545032;-71
2024/03/01 09:04:10;;;;;;;38.40;27.10;;;;;;;;;;103778;1288;544849;-71
2024/03/01 09:07:49;;;;;;;31.60;21.10;;;;;;;;;;104031;1289;545187;-72
2024/03/01 09:11:24;;;;;;;29.50;21.10;;;;;;;;;;103516;1292;544768;-72
2024/03/01 09:15:02;;;;;;;33.10;21.30;;;;;;;;;;103864;1289;544927;-72
2024/03/01 09:18:49;;;;;;;33.40;20.70;;;;;;;;;;103790;1288;544947;-72
2024/03/01 09:22:17;;;;;;;31.80;21.00;;;;;;;;;;103867;1299;545008;-72
2024/03/01 09:26:02;;;;;;;31.80;22.20;;;;;;;;;;103731;1289;546063;-72
2024/03/01 09:29:34;;;;;;;29.30;22.10;;;;;;;;;;103836;1291;545567;-72
2024/03/01 09:33:16;;;;;;;30.30;20.80;;;;;;;;;;103626;1293;544808;-72
2024/03/01 09:36:46;;;;;;;30.70;20.30;;;;;;;;;;103840;1289;545051;-71
2024/03/01 09:40:34;;;;;;;35.20;25.00;;;;;;;;;;103627;1292;544732;-72
2024/03/01 09:44:38;;;;;;;33.60;23.10;;;;;;;;;;103775;1289;545003;-72
2024/03/01 09:47:58;;;;;;;31.20;22.50;;;;;;;;;;103645;1292;545293;-73
2024/03/01 09:51:19;;;;;;;27.30;20.40;;;;;;;;;;103793;1292;545772;-72
2024/03/01 09:55:07;;;;;;;32.00;22.40;;;;;;;;;;104200;1285;545054;-72
2024/03/01 09:58:44;;;;;;;30.70;22.90;;;;;;;;;;103933;1289;544639;-72
2024/03/01 10:02:12;;;;;;;29.60;20.10;;;;;;;;;;103648;1295;544809;-73
2024/03/01 10:06:02;;;;;;;31.50;20.60;;;;;;;;;;103748;1289;545773;-71
2024/03/01 10:09:30;;;;;;;42.80;25.60;;;;;;;;;;103681;1292;545320;-72
2024/03/01 10:13:06;;;;;;;35.50;22.80;;;;;;;;;;103738;1294;546381;-72
2024/03/01 10:16:46;;;;;;;37.90;22.50;;;;;;;;;;103780;1289;544751;-72
2024/03/01 10:20:16;;;;;;;38.10;23.40;;;;;;;;;;103848;1289;545739;-72
2024/03/01 10:24:09;;;;;;;40.60;23.30;;;;;;;;;;103695;1289;545530;-72
2024/03/01 10:27:36;;;;;;;42.10;23.90;;;;;;;;;;103872;1290;544972;-72
2024/03/01 10:31:21;;;;;;;33.00;19.20;;;;;;;;;;103634;1292;545755;-71
2024/03/01 10:34:54;;;;;;;32.80;21.50;;;;;;;;;;103763;1301;545452;-72
2024/03/01 10:38:29;;;;;;;30.00;21.60;;;;;;;;;;103670;1291;544722;-70
2024/03/01 10:42:07;;;;;;;37.20;24.00;;;;;;;;;;103839;1289;545598;-72
2024/03/01 10:45:43;;;;;;;37.30;26.40;;;;;;;;;;103691;1296;545264;-71
2024/03/01 10:49:18;;;;;;;28.70;19.30;;;;;;;;;;103814;1288;545030;-71
2024/03/01 10:53:06;;;;;;;30.40;20.50;;;;;;;;;;103657;1296;544785;-72
2024/03/01 10:56:32;;;;;;;49.70;36.70;;;;;;;;;;103752;1288;545450;-72
2024/03/01 11:00:12;;;;;;;35.50;26.80;;;;;;;;;;103707;1291;545268;-72
2024/03/01 11:03:49;;;;;;;44.10;30.40;;;;;;;;;;103799;1289;545402;-72
2024/03/01 11:07:29;;;;;;;44.60;29.30;;;;;;;;;;103872;1288;545041;-71
2024/03/01 11:11:06;;;;;;;38.60;24.00;;;;;;;;;;103814;1289;544933;-72
2024/03/01 11:14:42;;;;;;;34.90;24.60;;;;;;;;;;103469;1290;545288;-72
2024/03/01 11:18:19;;;;;;;37.20;25.40;;;;;;;;;;103823;1289;544754;-72
2024/03/01 11:22:16;;;;;;;47.80;32.50;;;;;;;;;;103648;1291;544789;-72
2024/03/01 11:25:54;;;;;;;44.20;28.70;;;;;;;;;;103753;1295;545508;-70
2024/03/01 11:29:11;;;;;;;45.80;26.40;;;;;;;;;;103872;1288;545143;-70
2024/03/01 11:32:47;;;;;;;42.80;26.10;;;;;;;;;;103865;1289;545029;-71
2024/03/01 11:36:38;;;;;;;52.40;33.20;;;;;;;;;;103643;1303;544923;-72
2024/03/01 11:40:12;;;;;;;46.30;27.40;;;;;;;;;;103743;1291;545041;-70
2024/03/01 11:43:53;;;;;;;49.40;31.60;;;;;;;;;;103802;1290;544937;-72
2024/03/01 11:47:18;;;;;;;47.30;32.30;;;;;;;;;;103820;1292;545515;-70
2024/03/01 11:51:17;;;;;;;48.40;35.60;;;;;;;;;;103735;1295;544708;-72
2024/03/01 11:54:36;;;;;;;53.10;34.80;;;;;;;;;;103994;1292;545005;-71
2024/03/01 11:58:20;;;;;;;42.60;27.50;;;;;;;;;;103918;1292;544815;-72
2024/03/01 12:01:56;;;;;;;47.00;28.40;;;;;;;;;;103831;1290;545434;-70
2024/03/01 12:05:44;;;;;;;44.60;26.70;;;;;;;;;;103729;1292;545689;-72
2024/03/01 12:09:17;;;;;;;42.40;26.10;;;;;;;;;;103739;1293;544802;-71
2024/03/01 12:12:47;;;;;;;37.10;25.40;;;;;;;;;;103705;1290;546512;-72
2024/03/01 12:16:27;;;;;;;33.60;22.20;;;;;;;;;;103828;1289;545564;-71
2024/03/01 12:19:56;;;;;;;37.00;25.60;;;;;;;;;;103633;1302;545141;-72
2024/03/01 12:23:35;;;;;;;33.10;23.80;;;;;;;;;;103835;1289;545450;-72
2024/03/01 12:27:15;;;;;;;30.50;22.30;;;;;;;;;;103581;1291;545241;-72
2024/03/01 12:31:00;;;;;;;36.70;25.80;;;;;;;;;;103722;1288;544876;-70
2024/03/01 12:34:52;;;;;;;31.80;24.00;;;;;;;;;;103757;1289;544862;-72
2024/03/01 12:38:06;;;;;;;33.40;22.30;;;;;;;;;;103852;1289;545238;-72
2024/03/01 12:41:46;;;;;;;32.50;23.90;;;;;;;;;;103967;1295;545196;-72
2024/03/01 12:45:34;;;;;;;32.60;22.40;;;;;;;;;;103769;1289;545128;-70
2024/03/01 12:49:05;;;;;;;29.40;21.50;;;;;;;;;;103725;1292;545348;-72
2024/03/01 12:52:30;;;;;;;29.60;21.40;;;;;;;;;;103730;1289;545158;-72
2024/03/01 12:56:13;;;;;;;29.70;21.40;;;;;;;;;;103620;1297;545961;-71
2024/03/01 12:59:48;;;;;;;33.10;23.90;;;;;;;;;;103812;1292;545860;-72
2024/03/01 13:03:42;;;;;;;36.90;24.90;;;;;;;;;;103705;1290;545062;-72
2024/03/01 13:07:00;;;;;;;31.30;21.50;;;;;;;;;;103793;1289;545492;-72
2024/03/01 13:10:34;;;;;;;31.80;22.00;;;;;;;;;;103540;1295;544819;-72
2024/03/01 13:14:14;;;;;;;32.10;23.00;;;;;;;;;;103975;1289;545463;-71
2024/03/01 13:18:12;;;;;;;29.90;21.20;;;;;;;;;;103588;1297;545927;-72
2024/03/01 13:21:40;;;;;;;28.20;20.20;;;;;;;;;;104070;1292;544783;-71
2024/03/01 13:25:15;;;;;;;29.80;21.20;;;;;;;;;;103737;1289;544754;-72
2024/03/01 13:28:55;;;;;;;30.30;20.60;;;;;;;;;;103789;1289;545699;-72
2024/03/01 13:32:37;;;;;;;30.30;19.90;;;;;;;;;;103638;1293;544966;-72
2024/03/01 13:36:10;;;;;;;30.80;19.50;;;;;;;;;;103815;1289;544807;-71
2024/03/01 13:40:06;;;;;;;27.60;19.40;;;;;;;;;;103867;1288;544753;-72
2024/03/01 13:43:35;;;;;;;34.20;22.20;;;;;;;;;;103794;1290;544616;-72
2024/03/01 13:47:10;;;;;;;27.50;20.00;;;;;;;;;;103642;1291;545719;-72
2024/03/01 13:50:34;;;;;;;31.30;20.50;;;;;;;;;;103844;1289;544986;-72
2024/03/01 13:54:04;;;;;;;27.00;19.30;;;;;;;;;;103845;1292;545697;-72
2024/03/01 13:57:48;;;;;;;28.50;19.40;;;;;;;;;;103789;1289;544936;-72
2024/03/01 14:01:24;;;;;;;26.50;18.80;;;;;;;;;;103647;1296;545234;-72
2024/03/01 14:05:00;;;;;;;32.40;19.90;;;;;;;;;;103818;1290;545503;-72
2024/03/01 14:08:39;;;;;;;26.70;18.60;;;;;;;;;;103649;1291;545677;-73
2024/03/01 14:12:14;;;;;;;30.70;18.60;;;;;;;;;;103962;1290;544983;-72
2024/03/01 14:16:02;;;;;;;23.90;16.50;;;;;;;;;;103717;1290;544795;-72
2024/03/01 14:19:29;;;;;;;28.20;17.10;;;;;;;;;;103755;1289;544804;-72
2024/03/01 14:23:06;;;;;;;25.10;18.00;;;;;;;;;;103761;1302;544829;-72
2024/03/01 14:26:43;;;;;;;26.70;17.50;;;;;;;;;;103708;1292;545503;-72
2024/03/01 14:30:24;;;;;;;24.20;17.90;;;;;;;;;;103626;1291;544945;-72
2024/03/01 14:33:59;;;;;;;25.30;17.60;;;;;;;;;;103791;1292;544852;-72
2024/03/01 14:37:36;;;;;;;25.40;16.40;;;;;;;;;;103694;1289;546453;-71
2024/03/01 14:41:13;;;;;;;28.00;16.90;;;;;;;;;;103826;1289;544764;-70
2024/03/01 14:44:51;;;;;;;28.30;17.10;;;;;;;;;;103635;1304;545009;-72
2024/03/01 14:48:35;;;;;;;24.20;16.30;;;;;;;;;;103777;1292;544641;-72
2024/03/01 14:52:10;;;;;;;26.30;16.90;;;;;;;;;;103619;1291;545048;-73
2024/03/01 14:55:44;;;;;;;28.50;16.70;;;;;;;;;;103812;1289;545004;-72
2024/03/01 14:59:21;;;;;;;24.70;16.20;;;;;;;;;;103710;1295;545658;-72
2024/03/01 15:02:58;;;;;;;24.90;18.30;;;;;;;;;;103897;1289;546104;-71
2024/03/01 15:06:35;;;;;;;25.00;17.40;;;;;;;;;;103671;1289;544984;-72
2024/03/01 15:10:24;;;;;;;23.00;16.50;;;;;;;;;;103692;1292;545017;-72
2024/03/01 15:13:51;;;;;;;26.50;19.30;;;;;;;;;;103632;1292;544639;-72
2024/03/01 15:17:28;;;;;;;56.30;36.20;;;;;;;;;;103810;1292;545001;-71
2024/03/01 15:21:10;;;;;;;56.50;37.80;;;;;;;;;;103598;1289;544842;-71
2024/03/01 15:24:39;;;;;;;97.30;70.80;;;;;;;;;;103886;1301;545326;-70
2024/03/01 15:28:20;;;;;;;46.10;32.00;;;;;;;;;;103696;1290;544895;-72
2024/03/01 15:31:58;;;;;;;32.00;21.60;;;;;;;;;;103743;1292;545009;-71
2024/03/01 15:35:36;;;;;;;29.10;20.40;;;;;;;;;;103643;1295;545387;-71
2024/03/01 15:39:13;;;;;;;30.20;21.70;;;;;;;;;;103817;1290;545318;-71
2024/03/01 15:42:51;;;;;;;32.90;23.10;;;;;;;;;;103619;1292;544841;-71
2024/03/01 15:46:29;;;;;;;33.50;23.50;;;;;;;;;;103676;1289;544886;-71
2024/03/01 15:50:05;;;;;;;32.20;22.50;;;;;;;;;;103662;1291;545074;-71
2024/03/01 15:53:44;;;;;;;36.00;23.50;;;;;;;;;;103800;1289;544950;-72
2024/03/01 15:57:21;;;;;;;33.80;24.40;;;;;;;;;;103957;1292;544958;-71
2024/03/01 16:00:58;;;;;;;35.20;25.40;;;;;;;;;;103796;1289;544780;-72
2024/03/01 16:04:35;;;;;;;40.20;26.50;;;;;;;;;;103678;1289;544925;-71
2024/03/01 16:08:20;;;;;;;36.40;24.50;;;;;;;;;;103541;1295;544957;-71
2024/03/01 16:11:51;;;;;;;31.90;24.10;;;;;;;;;;103692;1289;544864;-72
2024/03/01 16:15:32;;;;;;;37.30;24.60;;;;;;;;;;103739;1289;545423;-71
2024/03/01 16:19:06;;;;;;;35.40;25.70;;;;;;;;;;103682;1296;544867;-72
2024/03/01 16:22:44;;;;;;;36.60;26.00;;;;;;;;;;103742;1292;544999;-71
2024/03/01 16:26:21;;;;;;;34.40;25.30;;;;;;;;;;103641;1291;544767;-71
2024/03/01 16:29:59;;;;;;;37.50;24.80;;;;;;;;;;104091;1289;544922;-71
2024/03/01 16:33:35;;;;;;;38.40;27.50;;;;;;;;;;103678;1291;545564;-71
2024/03/01 16:37:12;;;;;;;39.70;27.40;;;;;;;;;;103707;1292;544732;-71
2024/03/01 16:40:50;;;;;;;37.10;26.80;;;;;;;;;;103628;1291;544842;-71
2024/03/01 16:44:31;;;;;;;36.70;25.20;;;;;;;;;;104522;1291;544981;-72
2024/03/01 16:48:05;;;;;;;36.60;25.00;;;;;;;;;;103892;1294;545043;-70
2024/03/01 16:51:42;;;;;;;36.50;26.80;;;;;;;;;;104875;1286;545037;-72
2024/03/01 16:55:35;;;;;;;41.70;29.10;;;;;;;;;;103614;1291;546672;-72
2024/03/01 16:58:58;;;;;;;44.00;30.80;;;;;;;;;;103760;1292;545451;-71
2024/03/01 17:02:40;;;;;;;45.20;31.70;;;;;;;;;;103721;1290;546383;-72
2024/03/01 17:06:13;;;;;;;54.30;39.10;;;;;;;;;;103765;1289;545249;-72
2024/03/01 17:09:51;;;;;;;50.40;36.00;;;;;;;;;;103691;1291;545366;-72
2024/03/01 17:13:25;;;;;;;49.20;35.50;;;;;;;;;;103752;1289;545755;-71
2024/03/01 17:17:07;;;;;;;45.10;33.00;;;;;;;;;;103678;1291;545774;-71
2024/03/01 17:20:43;;;;;;;39.30;28.60;;;;;;;;;;103678;1291;546131;-72
2024/03/01 17:24:19;;;;;;;36.60;26.60;;;;;;;;;;103913;1292;545005;-72
2024/03/01 17:27:58;;;;;;;35.40;26.40;;;;;;;;;;103689;1290;544944;-72
2024/03/01 17:31:34;;;;;;;38.00;27.30;;;;;;;;;;103734;1289;544934;-71
2024/03/01 17:35:12;;;;;;;35.90;25.20;;;;;;;;;;103684;1289;545031;-71
2024/03/01 17:38:51;;;;;;;37.10;27.60;;;;;;;;;;103803;1292;545433;-71
2024/03/01 17:42:28;;;;;;;32.40;24.00;;;;;;;;;;103798;1289;544789;-71
2024/03/01 17:46:04;;;;;;;34.10;22.70;;;;;;;;;;103441;1292;545020;-68
2024/03/01 17:49:39;;;;;;;30.50;21.80;;;;;;;;;;103578;1302;544996;-69
2024/03/01 17:53:21;;;;;;;31.30;20.20;;;;;;;;;;104051;1295;545549;-71
2024/03/01 17:56:57;;;;;;;30.30;20.00;;;;;;;;;;103707;1291;545127;-71
2024/03/01 18:00:34;;;;;;;30.00;20.20;;;;;;;;;;104606;1289;545667;-71
2024/03/01 18:04:12;;;;;;;30.50;20.70;;;;;;;;;;103776;1289;545290;-71
2024/03/01 18:07:49;;;;;;;37.50;23.20;;;;;;;;;;104011;1289;545081;-70
2024/03/01 18:11:27;;;;;;;33.90;23.40;;;;;;;;;;103838;1297;546218;-71
2024/03/01 18:15:04;;;;;;;44.10;27.30;;;;;;;;;;103833;1289;544830;-71
2024/03/01 18:18:42;;;;;;;42.80;27.10;;;;;;;;;;103632;1289;545131;-71
2024/03/01 18:22:20;;;;;;;41.20;23.80;;;;;;;;;;103961;1289;544896;-70
2024/03/01 18:25:54;;;;;;;37.90;22.90;;;;;;;;;;103660;1289;545045;-69
2024/03/01 18:29:35;;;;;;;31.60;20.50;;;;;;;;;;103676;1289;544877;-71
2024/03/01 18:33:11;;;;;;;38.00;22.20;;;;;;;;;;103729;1289;544774;-71
2024/03/01 18:36:49;;;;;;;35.40;22.80;;;;;;;;;;103946;1288;544692;-71
2024/03/01 18:40:23;;;;;;;25.50;17.10;;;;;;;;;;103571;1289;544894;-70
2024/03/01 18:44:04;;;;;;;22.70;16.40;;;;;;;;;;103783;1291;544807;-71
2024/03/01 18:47:41;;;;;;;24.30;18.20;;;;;;;;;;104017;1288;544759;-71
2024/03/01 18:51:19;;;;;;;30.00;21.70;;;;;;;;;;104063;1290;546438;-71
2024/03/01 18:54:56;;;;;;;26.10;19.80;;;;;;;;;;103879;1295;544945;-71
2024/03/01 18:58:34;;;;;;;29.40;20.50;;;;;;;;;;103476;1292;544865;-71
2024/03/01 19:02:12;;;;;;;29.20;19.70;;;;;;;;;;104310;1289;544888;-71
2024/03/01 19:05:50;;;;;;;26.90;19.60;;;;;;;;;;103564;1292;544977;-71
2024/03/01 19:09:28;;;;;;;31.00;20.90;;;;;;;;;;103820;1289;545545;-71
2024/03/01 19:13:03;;;;;;;28.60;19.80;;;;;;;;;;103827;1292;545145;-70
2024/03/01 19:16:42;;;;;;;29.50;19.30;;;;;;;;;;103910;1292;545429;-71
2024/03/01 19:20:18;;;;;;;26.10;18.30;;;;;;;;;;103838;1290;544822;-70
2024/03/01 19:23:52;;;;;;;29.40;20.90;;;;;;;;;;103358;1294;544866;-71
2024/03/01 19:27:34;;;;;;;33.20;22.50;;;;;;;;;;103701;1292;544975;-71
2024/03/01 19:31:11;;;;;;;29.50;21.80;;;;;;;;;;103605;1295;545673;-70
2024/03/01 19:34:49;;;;;;;28.90;20.40;;;;;;;;;;103993;1290;544727;-71
2024/03/01 19:38:25;;;;;;;28.10;19.30;;;;;;;;;;103824;1289;546464;-71
2024/03/01 19:42:05;;;;;;;28.60;20.70;;;;;;;;;;103411;1303;544897;-71
2024/03/01 19:45:41;;;;;;;34.40;25.80;;;;;;;;;;104275;1286;545641;-71
2024/03/01 19:49:18;;;;;;;37.30;28.20;;;;;;;;;;103793;1292;545454;-71
2024/03/01 19:52:56;;;;;;;36.80;26.20;;;;;;;;;;103898;1295;544889;-71
2024/03/01 19:56:33;;;;;;;33.80;24.60;;;;;;;;;;103734;1292;545432;-71
2024/03/01 20:00:11;;;;;;;32.90;23.50;;;;;;;;;;103671;1292;545060;-71
2024/03/01 20:03:48;;;;;;;36.00;23.80;;;;;;;;;;103581;1294;545509;-71
2024/03/01 20:07:26;;;;;;;36.10;24.70;;;;;;;;;;103699;1297;545008;-71
2024/03/01 20:11:03;;;;;;;34.80;27.00;;;;;;;;;;103816;1291;545021;-71
2024/03/01 20:14:37;;;;;;;35.20;24.90;;;;;;;;;;103727;1292;545744;-71
2024/03/01 20:18:18;;;;;;;39.10;26.30;;;;;;;;;;104406;1286;544894;-71
2024/03/01 20:21:55;;;;;;;35.10;25.40;;;;;;;;;;103771;1289;545517;-71
2024/03/01 20:25:33;;;;;;;33.10;24.10;;;;;;;;;;104462;1283;544848;-71